sensor_id;sensor_type;location;lat;lon;timestamp;P1;durP1;ratioP1;P2;durP2;ratioP2
64857;SDS011;51335;51.148;6.950;2023-06-22T00:00:23;4.40;;;2.83;;
64857;SDS011;51335;51.148;6.950;2023-06-22T00:00:53;5.75;;;2.97;;
64857;SDS011;51335;51.148;6.950;2023-06-22T00:01:23;4.00;;;2.72;;
64857;SDS011;51335;51.148;6.950;2023-06-22T00:01:54;5.65;;;2.80;;
64857;SDS011;51335;51.148;6.950;2023-06-22T00:02:24;4.85;;;2.88;;
64857;SDS011;51335;51.148;6.950;2023-06-22T00:02:54;3.60;;;2.42;;
64857;SDS011;51335;51.148;6.950;2023-06-22T00:03:25;5.47;;;2.72;;
64857;SDS011;51335;51.148;6.950;2023-06-22T00:03:55;5.70;;;2.80;;
64857;SDS011;51335;51.148;6.950;2023-06-22T00:04:26;3.38;;;2.50;;
64857;SDS011;51335;51.148;6.950;2023-06-22T00:04:57;5.32;;;2.95;;
64857;SDS011;51335;51.148;6.950;2023-06-22T00:05:27;4.03;;;2.75;;
64857;SDS011;51335;51.148;6.950;2023-06-22T00:05:57;4.00;;;2.90;;
64857;SDS011;51335;51.148;6.950;2023-06-22T00:06:27;3.28;;;2.78;;
64857;SDS011;51335;51.148;6.950;2023-06-22T00:06:58;3.42;;;2.67;;
64857;SDS011;51335;51.148;6.950;2023-06-22T00:07:28;7.13;;;2.80;;
64857;SDS011;51335;51.148;6.950;2023-06-22T00:08:01;9.63;;;2.78;;
64857;SDS011;51335;51.148;6.950;2023-06-22T00:08:33;6.72;;;2.90;;
64857;SDS011;51335;51.148;6.950;2023-06-22T00:09:03;4.20;;;2.60;;
64857;SDS011;51335;51.148;6.950;2023-06-22T00:09:33;4.30;;;3.00;;
64857;SDS011;51335;51.148;6.950;2023-06-22T00:10:04;3.75;;;2.67;;
64857;SDS011;51335;51.148;6.950;2023-06-22T00:10:35;4.82;;;2.88;;
64857;SDS011;51335;51.148;6.950;2023-06-22T00:11:05;4.32;;;2.80;;
64857;SDS011;51335;51.148;6.950;2023-06-22T00:11:35;3.65;;;2.72;;
64857;SDS011;51335;51.148;6.950;2023-06-22T00:12:06;3.67;;;2.53;;
64857;SDS011;51335;51.148;6.950;2023-06-22T00:12:37;4.18;;;2.70;;
64857;SDS011;51335;51.148;6.950;2023-06-22T00:13:07;5.03;;;2.80;;
64857;SDS011;51335;51.148;6.950;2023-06-22T00:13:39;4.10;;;2.85;;
64857;SDS011;51335;51.148;6.950;2023-06-22T00:14:09;5.00;;;2.80;;
64857;SDS011;51335;51.148;6.950;2023-06-22T00:14:39;4.25;;;2.60;;
64857;SDS011;51335;51.148;6.950;2023-06-22T00:15:10;3.78;;;2.60;;
64857;SDS011;51335;51.148;6.950;2023-06-22T00:15:40;3.83;;;2.40;;
64857;SDS011;51335;51.148;6.950;2023-06-22T00:16:11;6.70;;;2.95;;
64857;SDS011;51335;51.148;6.950;2023-06-22T00:16:41;5.43;;;2.80;;
64857;SDS011;51335;51.148;6.950;2023-06-22T00:17:11;5.30;;;2.78;;
64857;SDS011;51335;51.148;6.950;2023-06-22T00:17:42;4.30;;;2.75;;
64857;SDS011;51335;51.148;6.950;2023-06-22T00:18:12;3.72;;;2.75;;
64857;SDS011;51335;51.148;6.950;2023-06-22T00:18:42;3.72;;;2.70;;
64857;SDS011;51335;51.148;6.950;2023-06-22T00:19:12;4.05;;;2.70;;
64857;SDS011;51335;51.148;6.950;2023-06-22T00:19:43;4.97;;;2.50;;
64857;SDS011;51335;51.148;6.950;2023-06-22T00:20:13;3.15;;;2.33;;
64857;SDS011;51335;51.148;6.950;2023-06-22T00:20:43;3.85;;;2.80;;
64857;SDS011;51335;51.148;6.950;2023-06-22T00:21:13;3.63;;;2.72;;
64857;SDS011;51335;51.148;6.950;2023-06-22T00:21:44;3.88;;;2.83;;
64857;SDS011;51335;51.148;6.950;2023-06-22T00:22:14;5.00;;;2.90;;
64857;SDS011;51335;51.148;6.950;2023-06-22T00:22:44;4.15;;;2.80;;
64857;SDS011;51335;51.148;6.950;2023-06-22T00:23:14;7.32;;;2.80;;
64857;SDS011;51335;51.148;6.950;2023-06-22T00:23:45;5.07;;;2.60;;
64857;SDS011;51335;51.148;6.950;2023-06-22T00:24:15;5.53;;;2.80;;
64857;SDS011;51335;51.148;6.950;2023-06-22T00:24:45;4.40;;;2.90;;
64857;SDS011;51335;51.148;6.950;2023-06-22T00:25:15;3.28;;;2.85;;
64857;SDS011;51335;51.148;6.950;2023-06-22T00:25:46;4.97;;;2.90;;
64857;SDS011;51335;51.148;6.950;2023-06-22T00:26:17;4.68;;;2.30;;
64857;SDS011;51335;51.148;6.950;2023-06-22T00:26:47;5.15;;;2.70;;
64857;SDS011;51335;51.148;6.950;2023-06-22T00:27:18;3.58;;;2.53;;
64857;SDS011;51335;51.148;6.950;2023-06-22T00:27:48;5.30;;;2.85;;
64857;SDS011;51335;51.148;6.950;2023-06-22T00:28:19;3.65;;;2.55;;
64857;SDS011;51335;51.148;6.950;2023-06-22T00:28:50;4.05;;;2.92;;
64857;SDS011;51335;51.148;6.950;2023-06-22T00:29:20;4.05;;;2.80;;
64857;SDS011;51335;51.148;6.950;2023-06-22T00:29:50;5.32;;;2.88;;
64857;SDS011;51335;51.148;6.950;2023-06-22T00:30:20;3.60;;;2.70;;
64857;SDS011;51335;51.148;6.950;2023-06-22T00:30:51;5.75;;;2.70;;
64857;SDS011;51335;51.148;6.950;2023-06-22T00:31:21;4.25;;;2.55;;
64857;SDS011;51335;51.148;6.950;2023-06-22T00:31:51;4.35;;;2.83;;
64857;SDS011;51335;51.148;6.950;2023-06-22T00:32:21;5.57;;;2.65;;
64857;SDS011;51335;51.148;6.950;2023-06-22T00:32:52;3.88;;;2.70;;
64857;SDS011;51335;51.148;6.950;2023-06-22T00:33:22;4.97;;;2.90;;
64857;SDS011;51335;51.148;6.950;2023-06-22T00:33:52;5.20;;;2.80;;
64857;SDS011;51335;51.148;6.950;2023-06-22T00:34:22;4.35;;;2.80;;
64857;SDS011;51335;51.148;6.950;2023-06-22T00:34:53;4.63;;;2.80;;
64857;SDS011;51335;51.148;6.950;2023-06-22T00:35:23;4.60;;;2.63;;
64857;SDS011;51335;51.148;6.950;2023-06-22T00:35:54;4.28;;;2.72;;
64857;SDS011;51335;51.148;6.950;2023-06-22T00:36:24;5.03;;;2.67;;
64857;SDS011;51335;51.148;6.950;2023-06-22T00:36:54;5.00;;;2.70;;
64857;SDS011;51335;51.148;6.950;2023-06-22T00:37:24;3.33;;;2.40;;
64857;SDS011;51335;51.148;6.950;2023-06-22T00:37:55;3.65;;;2.40;;
64857;SDS011;51335;51.148;6.950;2023-06-22T00:38:26;4.18;;;2.40;;
64857;SDS011;51335;51.148;6.950;2023-06-22T00:38:56;4.60;;;2.63;;
64857;SDS011;51335;51.148;6.950;2023-06-22T00:39:26;4.00;;;2.80;;
64857;SDS011;51335;51.148;6.950;2023-06-22T00:39:57;3.47;;;2.65;;
64857;SDS011;51335;51.148;6.950;2023-06-22T00:40:27;3.58;;;2.65;;
64857;SDS011;51335;51.148;6.950;2023-06-22T00:40:58;5.03;;;2.70;;
64857;SDS011;51335;51.148;6.950;2023-06-22T00:41:29;4.00;;;2.47;;
64857;SDS011;51335;51.148;6.950;2023-06-22T00:41:59;5.18;;;2.60;;
64857;SDS011;51335;51.148;6.950;2023-06-22T00:42:29;4.00;;;2.70;;
64857;SDS011;51335;51.148;6.950;2023-06-22T00:43:00;4.50;;;2.70;;
64857;SDS011;51335;51.148;6.950;2023-06-22T00:43:30;3.78;;;2.63;;
64857;SDS011;51335;51.148;6.950;2023-06-22T00:44:00;6.65;;;2.80;;
64857;SDS011;51335;51.148;6.950;2023-06-22T00:44:30;4.20;;;2.75;;
64857;SDS011;51335;51.148;6.950;2023-06-22T00:45:01;5.13;;;2.78;;
64857;SDS011;51335;51.148;6.950;2023-06-22T00:45:31;4.47;;;2.90;;
64857;SDS011;51335;51.148;6.950;2023-06-22T00:46:01;3.10;;;2.50;;
64857;SDS011;51335;51.148;6.950;2023-06-22T00:46:32;3.28;;;2.80;;
64857;SDS011;51335;51.148;6.950;2023-06-22T00:47:02;3.25;;;2.67;;
64857;SDS011;51335;51.148;6.950;2023-06-22T00:47:34;4.63;;;2.72;;
64857;SDS011;51335;51.148;6.950;2023-06-22T00:48:05;6.47;;;2.83;;
64857;SDS011;51335;51.148;6.950;2023-06-22T00:48:37;4.25;;;3.03;;
64857;SDS011;51335;51.148;6.950;2023-06-22T00:49:08;4.50;;;2.85;;
64857;SDS011;51335;51.148;6.950;2023-06-22T00:49:39;3.95;;;2.70;;
64857;SDS011;51335;51.148;6.950;2023-06-22T00:50:09;3.58;;;2.50;;
64857;SDS011;51335;51.148;6.950;2023-06-22T00:50:49;6.55;;;2.58;;
64857;SDS011;51335;51.148;6.950;2023-06-22T00:51:19;4.65;;;2.83;;
64857;SDS011;51335;51.148;6.950;2023-06-22T00:51:50;4.40;;;2.33;;
64857;SDS011;51335;51.148;6.950;2023-06-22T00:52:21;3.95;;;2.58;;
64857;SDS011;51335;51.148;6.950;2023-06-22T00:52:56;6.57;;;3.05;;
64857;SDS011;51335;51.148;6.950;2023-06-22T00:53:28;3.72;;;2.63;;
64857;SDS011;51335;51.148;6.950;2023-06-22T00:53:59;5.80;;;2.72;;
64857;SDS011;51335;51.148;6.950;2023-06-22T00:54:29;3.40;;;2.65;;
64857;SDS011;51335;51.148;6.950;2023-06-22T00:54:59;6.43;;;3.00;;
64857;SDS011;51335;51.148;6.950;2023-06-22T00:55:31;3.30;;;2.58;;
64857;SDS011;51335;51.148;6.950;2023-06-22T00:56:02;4.55;;;2.90;;
64857;SDS011;51335;51.148;6.950;2023-06-22T00:56:33;5.55;;;2.88;;
64857;SDS011;51335;51.148;6.950;2023-06-22T00:57:03;4.35;;;2.53;;
64857;SDS011;51335;51.148;6.950;2023-06-22T00:57:34;5.03;;;2.90;;
64857;SDS011;51335;51.148;6.950;2023-06-22T00:58:05;3.92;;;2.80;;
64857;SDS011;51335;51.148;6.950;2023-06-22T00:58:36;7.82;;;2.58;;
64857;SDS011;51335;51.148;6.950;2023-06-22T00:59:06;4.30;;;2.90;;
64857;SDS011;51335;51.148;6.950;2023-06-22T00:59:37;5.10;;;2.95;;
64857;SDS011;51335;51.148;6.950;2023-06-22T01:00:07;5.97;;;3.10;;
64857;SDS011;51335;51.148;6.950;2023-06-22T01:00:39;5.90;;;2.90;;
64857;SDS011;51335;51.148;6.950;2023-06-22T01:01:10;4.45;;;2.95;;
64857;SDS011;51335;51.148;6.950;2023-06-22T01:01:40;5.10;;;2.85;;
64857;SDS011;51335;51.148;6.950;2023-06-22T01:02:11;3.70;;;2.78;;
64857;SDS011;51335;51.148;6.950;2023-06-22T01:02:41;5.40;;;2.80;;
64857;SDS011;51335;51.148;6.950;2023-06-22T01:03:12;4.03;;;3.20;;
64857;SDS011;51335;51.148;6.950;2023-06-22T01:03:42;4.47;;;2.70;;
64857;SDS011;51335;51.148;6.950;2023-06-22T01:04:12;8.30;;;2.80;;
64857;SDS011;51335;51.148;6.950;2023-06-22T01:04:42;6.57;;;2.90;;
64857;SDS011;51335;51.148;6.950;2023-06-22T01:05:13;5.55;;;2.95;;
64857;SDS011;51335;51.148;6.950;2023-06-22T01:05:44;5.00;;;2.90;;
64857;SDS011;51335;51.148;6.950;2023-06-22T01:06:18;5.68;;;3.00;;
64857;SDS011;51335;51.148;6.950;2023-06-22T01:07:01;7.93;;;3.20;;
64857;SDS011;51335;51.148;6.950;2023-06-22T01:09:12;5.05;;;2.67;;
64857;SDS011;51335;51.148;6.950;2023-06-22T01:10:08;4.20;;;2.75;;
64857;SDS011;51335;51.148;6.950;2023-06-22T01:10:57;5.68;;;3.00;;
64857;SDS011;51335;51.148;6.950;2023-06-22T01:11:38;4.97;;;2.67;;
64857;SDS011;51335;51.148;6.950;2023-06-22T01:12:12;4.53;;;2.70;;
64857;SDS011;51335;51.148;6.950;2023-06-22T01:12:47;6.75;;;2.80;;
64857;SDS011;51335;51.148;6.950;2023-06-22T01:14:38;3.70;;;2.80;;
64857;SDS011;51335;51.148;6.950;2023-06-22T01:16:19;4.30;;;3.20;;
64857;SDS011;51335;51.148;6.950;2023-06-22T01:16:53;5.35;;;2.70;;
64857;SDS011;51335;51.148;6.950;2023-06-22T01:17:25;5.72;;;2.60;;
64857;SDS011;51335;51.148;6.950;2023-06-22T01:17:56;7.18;;;3.20;;
64857;SDS011;51335;51.148;6.950;2023-06-22T01:18:30;4.75;;;3.00;;
64857;SDS011;51335;51.148;6.950;2023-06-22T01:19:05;8.10;;;2.95;;
64857;SDS011;51335;51.148;6.950;2023-06-22T01:19:50;7.97;;;3.10;;
64857;SDS011;51335;51.148;6.950;2023-06-22T01:20:23;4.80;;;3.00;;
64857;SDS011;51335;51.148;6.950;2023-06-22T01:20:55;3.50;;;2.75;;
64857;SDS011;51335;51.148;6.950;2023-06-22T01:21:28;4.93;;;3.10;;
64857;SDS011;51335;51.148;6.950;2023-06-22T01:21:59;4.43;;;2.72;;
64857;SDS011;51335;51.148;6.950;2023-06-22T01:22:31;3.92;;;2.83;;
64857;SDS011;51335;51.148;6.950;2023-06-22T01:23:15;7.40;;;3.30;;
64857;SDS011;51335;51.148;6.950;2023-06-22T01:24:06;6.70;;;3.13;;
64857;SDS011;51335;51.148;6.950;2023-06-22T01:25:45;5.35;;;3.10;;
64857;SDS011;51335;51.148;6.950;2023-06-22T01:26:18;4.95;;;3.10;;
64857;SDS011;51335;51.148;6.950;2023-06-22T01:29:31;4.40;;;3.10;;
64857;SDS011;51335;51.148;6.950;2023-06-22T01:30:05;4.78;;;2.85;;
64857;SDS011;51335;51.148;6.950;2023-06-22T01:30:36;4.22;;;2.70;;
64857;SDS011;51335;51.148;6.950;2023-06-22T01:31:07;6.40;;;2.83;;
64857;SDS011;51335;51.148;6.950;2023-06-22T01:31:38;4.43;;;2.90;;
64857;SDS011;51335;51.148;6.950;2023-06-22T01:32:10;5.13;;;2.58;;
64857;SDS011;51335;51.148;6.950;2023-06-22T01:32:42;4.60;;;2.78;;
64857;SDS011;51335;51.148;6.950;2023-06-22T01:33:13;5.38;;;2.80;;
64857;SDS011;51335;51.148;6.950;2023-06-22T01:33:45;5.10;;;3.00;;
64857;SDS011;51335;51.148;6.950;2023-06-22T01:34:19;4.45;;;2.75;;
64857;SDS011;51335;51.148;6.950;2023-06-22T01:34:50;6.50;;;3.25;;
64857;SDS011;51335;51.148;6.950;2023-06-22T01:35:20;5.32;;;3.15;;
64857;SDS011;51335;51.148;6.950;2023-06-22T01:35:51;4.47;;;2.90;;
64857;SDS011;51335;51.148;6.950;2023-06-22T01:36:22;5.40;;;3.05;;
64857;SDS011;51335;51.148;6.950;2023-06-22T01:36:54;4.43;;;3.05;;
64857;SDS011;51335;51.148;6.950;2023-06-22T01:37:24;6.03;;;3.00;;
64857;SDS011;51335;51.148;6.950;2023-06-22T01:37:55;6.72;;;3.25;;
64857;SDS011;51335;51.148;6.950;2023-06-22T01:38:26;5.15;;;3.35;;
64857;SDS011;51335;51.148;6.950;2023-06-22T01:38:58;5.13;;;3.15;;
64857;SDS011;51335;51.148;6.950;2023-06-22T01:39:29;5.13;;;2.97;;
64857;SDS011;51335;51.148;6.950;2023-06-22T01:40:00;4.90;;;2.80;;
64857;SDS011;51335;51.148;6.950;2023-06-22T01:40:32;4.60;;;2.97;;
64857;SDS011;51335;51.148;6.950;2023-06-22T01:41:03;4.32;;;2.78;;
64857;SDS011;51335;51.148;6.950;2023-06-22T01:41:34;3.25;;;2.70;;
64857;SDS011;51335;51.148;6.950;2023-06-22T01:42:07;4.20;;;2.85;;
64857;SDS011;51335;51.148;6.950;2023-06-22T01:42:38;6.68;;;2.97;;
64857;SDS011;51335;51.148;6.950;2023-06-22T01:43:08;3.40;;;2.80;;
64857;SDS011;51335;51.148;6.950;2023-06-22T01:43:39;3.92;;;3.00;;
64857;SDS011;51335;51.148;6.950;2023-06-22T01:44:10;6.80;;;3.00;;
64857;SDS011;51335;51.148;6.950;2023-06-22T01:44:42;5.65;;;3.28;;
64857;SDS011;51335;51.148;6.950;2023-06-22T01:45:13;6.50;;;3.10;;
64857;SDS011;51335;51.148;6.950;2023-06-22T01:45:44;3.67;;;3.00;;
64857;SDS011;51335;51.148;6.950;2023-06-22T01:46:14;3.65;;;2.75;;
64857;SDS011;51335;51.148;6.950;2023-06-22T01:46:45;5.95;;;3.10;;
64857;SDS011;51335;51.148;6.950;2023-06-22T01:47:16;4.80;;;2.63;;
64857;SDS011;51335;51.148;6.950;2023-06-22T01:47:47;3.83;;;2.67;;
64857;SDS011;51335;51.148;6.950;2023-06-22T01:48:18;8.05;;;2.95;;
64857;SDS011;51335;51.148;6.950;2023-06-22T01:48:49;8.27;;;3.00;;
64857;SDS011;51335;51.148;6.950;2023-06-22T01:49:20;5.43;;;2.90;;
64857;SDS011;51335;51.148;6.950;2023-06-22T01:49:51;6.10;;;2.90;;
64857;SDS011;51335;51.148;6.950;2023-06-22T01:50:21;8.18;;;2.95;;
64857;SDS011;51335;51.148;6.950;2023-06-22T01:50:52;4.05;;;2.88;;
64857;SDS011;51335;51.148;6.950;2023-06-22T01:51:23;4.45;;;2.88;;
64857;SDS011;51335;51.148;6.950;2023-06-22T01:51:54;5.13;;;2.90;;
64857;SDS011;51335;51.148;6.950;2023-06-22T01:52:24;4.15;;;2.75;;
64857;SDS011;51335;51.148;6.950;2023-06-22T01:52:54;4.70;;;2.90;;
64857;SDS011;51335;51.148;6.950;2023-06-22T01:53:25;5.32;;;2.83;;
64857;SDS011;51335;51.148;6.950;2023-06-22T01:53:55;3.88;;;2.88;;
64857;SDS011;51335;51.148;6.950;2023-06-22T01:54:26;5.88;;;2.80;;
64857;SDS011;51335;51.148;6.950;2023-06-22T01:54:56;4.63;;;2.90;;
64857;SDS011;51335;51.148;6.950;2023-06-22T01:55:26;4.65;;;3.15;;
64857;SDS011;51335;51.148;6.950;2023-06-22T01:55:56;5.25;;;2.90;;
64857;SDS011;51335;51.148;6.950;2023-06-22T01:56:27;4.63;;;2.90;;
64857;SDS011;51335;51.148;6.950;2023-06-22T01:56:57;5.07;;;3.20;;
64857;SDS011;51335;51.148;6.950;2023-06-22T01:57:28;3.92;;;2.88;;
64857;SDS011;51335;51.148;6.950;2023-06-22T01:57:58;5.45;;;3.15;;
64857;SDS011;51335;51.148;6.950;2023-06-22T01:58:29;6.22;;;2.78;;
64857;SDS011;51335;51.148;6.950;2023-06-22T01:59:59;4.53;;;2.90;;
64857;SDS011;51335;51.148;6.950;2023-06-22T02:00:34;3.47;;;2.80;;
64857;SDS011;51335;51.148;6.950;2023-06-22T02:01:11;6.65;;;2.85;;
64857;SDS011;51335;51.148;6.950;2023-06-22T02:01:44;4.50;;;2.85;;
64857;SDS011;51335;51.148;6.950;2023-06-22T02:02:59;4.63;;;2.85;;
64857;SDS011;51335;51.148;6.950;2023-06-22T02:03:31;4.20;;;2.85;;
64857;SDS011;51335;51.148;6.950;2023-06-22T02:04:28;4.07;;;2.50;;
64857;SDS011;51335;51.148;6.950;2023-06-22T02:05:17;3.83;;;2.65;;
64857;SDS011;51335;51.148;6.950;2023-06-22T02:05:49;4.88;;;3.28;;
64857;SDS011;51335;51.148;6.950;2023-06-22T02:06:25;6.20;;;3.10;;
64857;SDS011;51335;51.148;6.950;2023-06-22T02:06:59;9.18;;;3.38;;
64857;SDS011;51335;51.148;6.950;2023-06-22T02:07:34;6.63;;;3.28;;
64857;SDS011;51335;51.148;6.950;2023-06-22T02:08:12;3.42;;;2.80;;
64857;SDS011;51335;51.148;6.950;2023-06-22T02:08:48;5.00;;;3.13;;
64857;SDS011;51335;51.148;6.950;2023-06-22T02:09:21;4.75;;;2.97;;
64857;SDS011;51335;51.148;6.950;2023-06-22T02:09:53;3.92;;;2.72;;
64857;SDS011;51335;51.148;6.950;2023-06-22T02:10:26;3.85;;;2.75;;
64857;SDS011;51335;51.148;6.950;2023-06-22T02:10:57;6.35;;;3.33;;
64857;SDS011;51335;51.148;6.950;2023-06-22T02:11:29;4.03;;;3.20;;
64857;SDS011;51335;51.148;6.950;2023-06-22T02:12:01;8.50;;;3.20;;
64857;SDS011;51335;51.148;6.950;2023-06-22T02:12:34;4.60;;;3.38;;
64857;SDS011;51335;51.148;6.950;2023-06-22T02:13:06;7.03;;;3.55;;
64857;SDS011;51335;51.148;6.950;2023-06-22T02:13:37;5.95;;;3.03;;
64857;SDS011;51335;51.148;6.950;2023-06-22T02:14:08;5.90;;;3.30;;
64857;SDS011;51335;51.148;6.950;2023-06-22T02:14:39;5.32;;;3.22;;
64857;SDS011;51335;51.148;6.950;2023-06-22T02:15:10;5.95;;;3.50;;
64857;SDS011;51335;51.148;6.950;2023-06-22T02:15:41;4.55;;;3.42;;
64857;SDS011;51335;51.148;6.950;2023-06-22T02:16:12;5.25;;;3.38;;
64857;SDS011;51335;51.148;6.950;2023-06-22T02:16:44;4.55;;;3.38;;
64857;SDS011;51335;51.148;6.950;2023-06-22T02:17:18;4.72;;;2.92;;
64857;SDS011;51335;51.148;6.950;2023-06-22T02:17:49;6.03;;;3.00;;
64857;SDS011;51335;51.148;6.950;2023-06-22T02:18:19;4.75;;;3.10;;
64857;SDS011;51335;51.148;6.950;2023-06-22T02:18:50;6.38;;;3.10;;
64857;SDS011;51335;51.148;6.950;2023-06-22T02:19:24;4.53;;;2.97;;
64857;SDS011;51335;51.148;6.950;2023-06-22T02:19:55;5.38;;;3.25;;
64857;SDS011;51335;51.148;6.950;2023-06-22T02:20:25;4.03;;;2.78;;
64857;SDS011;51335;51.148;6.950;2023-06-22T02:20:55;4.43;;;3.17;;
64857;SDS011;51335;51.148;6.950;2023-06-22T02:21:25;4.45;;;3.20;;
64857;SDS011;51335;51.148;6.950;2023-06-22T02:21:56;5.70;;;3.03;;
64857;SDS011;51335;51.148;6.950;2023-06-22T02:22:26;7.25;;;3.25;;
64857;SDS011;51335;51.148;6.950;2023-06-22T02:22:56;4.60;;;3.40;;
64857;SDS011;51335;51.148;6.950;2023-06-22T02:23:26;5.35;;;2.92;;
64857;SDS011;51335;51.148;6.950;2023-06-22T02:23:57;6.25;;;3.10;;
64857;SDS011;51335;51.148;6.950;2023-06-22T02:24:27;6.00;;;3.20;;
64857;SDS011;51335;51.148;6.950;2023-06-22T02:24:58;7.50;;;3.47;;
64857;SDS011;51335;51.148;6.950;2023-06-22T02:25:28;5.88;;;3.22;;
64857;SDS011;51335;51.148;6.950;2023-06-22T02:25:58;6.60;;;3.38;;
64857;SDS011;51335;51.148;6.950;2023-06-22T02:26:28;5.53;;;3.50;;
64857;SDS011;51335;51.148;6.950;2023-06-22T02:26:59;3.95;;;3.25;;
64857;SDS011;51335;51.148;6.950;2023-06-22T02:27:30;4.05;;;2.90;;
64857;SDS011;51335;51.148;6.950;2023-06-22T02:28:01;7.35;;;3.08;;
64857;SDS011;51335;51.148;6.950;2023-06-22T02:28:31;5.00;;;3.20;;
64857;SDS011;51335;51.148;6.950;2023-06-22T02:29:01;4.97;;;3.30;;
64857;SDS011;51335;51.148;6.950;2023-06-22T02:29:32;5.22;;;3.60;;
64857;SDS011;51335;51.148;6.950;2023-06-22T02:30:02;4.47;;;3.10;;
64857;SDS011;51335;51.148;6.950;2023-06-22T02:30:33;4.07;;;2.97;;
64857;SDS011;51335;51.148;6.950;2023-06-22T02:31:03;6.30;;;3.45;;
64857;SDS011;51335;51.148;6.950;2023-06-22T02:31:33;4.18;;;3.40;;
64857;SDS011;51335;51.148;6.950;2023-06-22T02:32:04;7.28;;;3.30;;
64857;SDS011;51335;51.148;6.950;2023-06-22T02:32:34;5.90;;;3.28;;
64857;SDS011;51335;51.148;6.950;2023-06-22T02:33:05;6.22;;;3.33;;
64857;SDS011;51335;51.148;6.950;2023-06-22T02:33:35;5.00;;;3.28;;
64857;SDS011;51335;51.148;6.950;2023-06-22T02:34:05;4.00;;;3.03;;
64857;SDS011;51335;51.148;6.950;2023-06-22T02:34:35;6.03;;;3.60;;
64857;SDS011;51335;51.148;6.950;2023-06-22T02:35:06;6.15;;;3.30;;
64857;SDS011;51335;51.148;6.950;2023-06-22T02:35:36;4.38;;;3.33;;
64857;SDS011;51335;51.148;6.950;2023-06-22T02:36:06;3.70;;;2.92;;
64857;SDS011;51335;51.148;6.950;2023-06-22T02:36:37;6.47;;;3.10;;
64857;SDS011;51335;51.148;6.950;2023-06-22T02:37:07;4.97;;;2.97;;
64857;SDS011;51335;51.148;6.950;2023-06-22T02:37:38;4.07;;;3.22;;
64857;SDS011;51335;51.148;6.950;2023-06-22T02:38:08;7.72;;;3.00;;
64857;SDS011;51335;51.148;6.950;2023-06-22T02:38:43;4.03;;;2.92;;
64857;SDS011;51335;51.148;6.950;2023-06-22T02:39:13;5.88;;;3.30;;
64857;SDS011;51335;51.148;6.950;2023-06-22T02:39:43;4.20;;;3.22;;
64857;SDS011;51335;51.148;6.950;2023-06-22T02:40:14;5.90;;;3.40;;
64857;SDS011;51335;51.148;6.950;2023-06-22T02:40:44;3.90;;;3.28;;
64857;SDS011;51335;51.148;6.950;2023-06-22T02:41:15;5.22;;;3.10;;
64857;SDS011;51335;51.148;6.950;2023-06-22T02:41:45;4.60;;;3.80;;
64857;SDS011;51335;51.148;6.950;2023-06-22T02:42:15;7.35;;;3.75;;
64857;SDS011;51335;51.148;6.950;2023-06-22T02:42:46;5.35;;;3.72;;
64857;SDS011;51335;51.148;6.950;2023-06-22T02:43:16;6.78;;;3.78;;
64857;SDS011;51335;51.148;6.950;2023-06-22T02:43:46;5.22;;;3.60;;
64857;SDS011;51335;51.148;6.950;2023-06-22T02:44:17;7.97;;;3.90;;
64857;SDS011;51335;51.148;6.950;2023-06-22T02:44:48;5.75;;;3.35;;
64857;SDS011;51335;51.148;6.950;2023-06-22T02:45:18;6.78;;;3.70;;
64857;SDS011;51335;51.148;6.950;2023-06-22T02:45:48;4.30;;;3.30;;
64857;SDS011;51335;51.148;6.950;2023-06-22T02:46:19;8.52;;;5.38;;
64857;SDS011;51335;51.148;6.950;2023-06-22T02:46:49;8.55;;;5.07;;
64857;SDS011;51335;51.148;6.950;2023-06-22T02:47:19;6.60;;;4.30;;
64857;SDS011;51335;51.148;6.950;2023-06-22T02:47:49;5.65;;;4.28;;
64857;SDS011;51335;51.148;6.950;2023-06-22T02:48:20;5.18;;;3.55;;
64857;SDS011;51335;51.148;6.950;2023-06-22T02:48:50;7.78;;;3.90;;
64857;SDS011;51335;51.148;6.950;2023-06-22T02:49:20;5.38;;;3.63;;
64857;SDS011;51335;51.148;6.950;2023-06-22T02:49:51;4.60;;;3.20;;
64857;SDS011;51335;51.148;6.950;2023-06-22T02:50:21;5.57;;;3.55;;
64857;SDS011;51335;51.148;6.950;2023-06-22T02:50:51;3.80;;;2.80;;
64857;SDS011;51335;51.148;6.950;2023-06-22T02:51:22;4.45;;;3.20;;
64857;SDS011;51335;51.148;6.950;2023-06-22T02:51:52;4.90;;;3.03;;
64857;SDS011;51335;51.148;6.950;2023-06-22T02:52:22;4.75;;;3.15;;
64857;SDS011;51335;51.148;6.950;2023-06-22T02:52:52;3.75;;;2.95;;
64857;SDS011;51335;51.148;6.950;2023-06-22T02:53:23;5.30;;;3.10;;
64857;SDS011;51335;51.148;6.950;2023-06-22T02:53:53;6.30;;;3.47;;
64857;SDS011;51335;51.148;6.950;2023-06-22T02:54:23;5.20;;;3.25;;
64857;SDS011;51335;51.148;6.950;2023-06-22T02:54:53;4.15;;;3.20;;
64857;SDS011;51335;51.148;6.950;2023-06-22T02:55:24;5.20;;;3.30;;
64857;SDS011;51335;51.148;6.950;2023-06-22T02:55:55;7.80;;;3.58;;
64857;SDS011;51335;51.148;6.950;2023-06-22T02:56:25;4.70;;;3.20;;
64857;SDS011;51335;51.148;6.950;2023-06-22T02:56:56;5.50;;;3.33;;
64857;SDS011;51335;51.148;6.950;2023-06-22T02:57:26;5.80;;;3.10;;
64857;SDS011;51335;51.148;6.950;2023-06-22T02:57:56;3.85;;;3.10;;
64857;SDS011;51335;51.148;6.950;2023-06-22T02:58:26;4.45;;;3.45;;
64857;SDS011;51335;51.148;6.950;2023-06-22T02:58:57;4.65;;;3.45;;
64857;SDS011;51335;51.148;6.950;2023-06-22T02:59:27;5.63;;;3.42;;
64857;SDS011;51335;51.148;6.950;2023-06-22T02:59:57;8.00;;;3.78;;
64857;SDS011;51335;51.148;6.950;2023-06-22T03:00:28;6.72;;;3.20;;
64857;SDS011;51335;51.148;6.950;2023-06-22T03:00:58;5.72;;;3.67;;
64857;SDS011;51335;51.148;6.950;2023-06-22T03:01:28;4.88;;;3.20;;
64857;SDS011;51335;51.148;6.950;2023-06-22T03:01:59;5.10;;;3.65;;
64857;SDS011;51335;51.148;6.950;2023-06-22T03:02:29;6.10;;;3.40;;
64857;SDS011;51335;51.148;6.950;2023-06-22T03:03:00;8.48;;;3.17;;
64857;SDS011;51335;51.148;6.950;2023-06-22T03:03:30;5.80;;;3.40;;
64857;SDS011;51335;51.148;6.950;2023-06-22T03:04:01;5.78;;;3.55;;
64857;SDS011;51335;51.148;6.950;2023-06-22T03:04:31;8.00;;;3.25;;
64857;SDS011;51335;51.148;6.950;2023-06-22T03:05:01;4.95;;;3.63;;
64857;SDS011;51335;51.148;6.950;2023-06-22T03:05:32;4.00;;;3.08;;
64857;SDS011;51335;51.148;6.950;2023-06-22T03:06:02;4.57;;;3.42;;
64857;SDS011;51335;51.148;6.950;2023-06-22T03:06:32;9.15;;;3.40;;
64857;SDS011;51335;51.148;6.950;2023-06-22T03:07:03;6.60;;;3.45;;
64857;SDS011;51335;51.148;6.950;2023-06-22T03:07:33;5.50;;;3.35;;
64857;SDS011;51335;51.148;6.950;2023-06-22T03:08:04;5.50;;;3.55;;
64857;SDS011;51335;51.148;6.950;2023-06-22T03:08:34;5.40;;;3.38;;
64857;SDS011;51335;51.148;6.950;2023-06-22T03:09:04;5.72;;;3.28;;
64857;SDS011;51335;51.148;6.950;2023-06-22T03:09:35;5.63;;;2.95;;
64857;SDS011;51335;51.148;6.950;2023-06-22T03:10:05;5.00;;;3.15;;
64857;SDS011;51335;51.148;6.950;2023-06-22T03:10:36;5.65;;;3.50;;
64857;SDS011;51335;51.148;6.950;2023-06-22T03:11:07;4.53;;;3.20;;
64857;SDS011;51335;51.148;6.950;2023-06-22T03:11:37;4.28;;;3.45;;
64857;SDS011;51335;51.148;6.950;2023-06-22T03:12:07;6.10;;;3.20;;
64857;SDS011;51335;51.148;6.950;2023-06-22T03:12:38;4.78;;;3.55;;
64857;SDS011;51335;51.148;6.950;2023-06-22T03:13:09;6.43;;;3.40;;
64857;SDS011;51335;51.148;6.950;2023-06-22T03:13:39;5.72;;;3.28;;
64857;SDS011;51335;51.148;6.950;2023-06-22T03:14:09;4.43;;;3.20;;
64857;SDS011;51335;51.148;6.950;2023-06-22T03:14:39;5.30;;;3.30;;
64857;SDS011;51335;51.148;6.950;2023-06-22T03:15:11;4.47;;;3.10;;
64857;SDS011;51335;51.148;6.950;2023-06-22T03:15:42;5.40;;;3.35;;
64857;SDS011;51335;51.148;6.950;2023-06-22T03:16:12;6.43;;;3.30;;
64857;SDS011;51335;51.148;6.950;2023-06-22T03:16:42;4.57;;;3.30;;
64857;SDS011;51335;51.148;6.950;2023-06-22T03:17:13;5.65;;;3.58;;
64857;SDS011;51335;51.148;6.950;2023-06-22T03:17:43;4.53;;;3.10;;
64857;SDS011;51335;51.148;6.950;2023-06-22T03:18:14;5.35;;;3.47;;
64857;SDS011;51335;51.148;6.950;2023-06-22T03:18:44;5.20;;;3.15;;